Terminal Aerodrome Forecast
Issued by NWS

Home | Current Version | Previous Version | Text Only | Print | Product List | Glossary On
Versions: 1 2 3 4 5 6 7 8 9 10 11 12 13 14 15 16 17 18 19 20 21 22 23 24 25 26 27 28 29 30 31 32 33 34 35 36 37 38 39 40 41 42 43 44 45 46 47
000
FTUS45 KBOU 030533
TAFBJC
TAF
KBJC 030533Z 0306/0406 34008KT P6SM SKC
     FM030900 32006KT P6SM FEW100 SCT150
     FM031200 01012KT P6SM FEW012 SCT150
     FM031500 03009KT P6SM SCT015 SCT110
     FM031900 07011KT P6SM SCT025 SCT110
     FM032100 08013KT P6SM VCTS SCT030CB BKN080
      TEMPO 0321/0401 VRB20G35KT 5SM +TSRAGS OVC020CB
     FM040200 06009KT P6SM VCSH SCT040 BKN080=

USA.gov is the U.S. government's official web portal to all federal, state and local government web resources and services.